sensor_id;sensor_type;location;lat;lon;timestamp;P1;durP1;ratioP1;P2;durP2;ratioP2
51724;SDS011;37801;53.224;6.552;2023-02-10T00:00:15;18.60;;;3.97;;
51724;SDS011;37801;53.224;6.552;2023-02-10T00:02:42;13.00;;;4.18;;
51724;SDS011;37801;53.224;6.552;2023-02-10T00:05:08;14.38;;;3.63;;
51724;SDS011;37801;53.224;6.552;2023-02-10T00:07:34;15.60;;;3.88;;
51724;SDS011;37801;53.224;6.552;2023-02-10T00:10:00;17.50;;;3.92;;
51724;SDS011;37801;53.224;6.552;2023-02-10T00:12:26;16.13;;;3.95;;
51724;SDS011;37801;53.224;6.552;2023-02-10T00:14:52;15.43;;;4.50;;
51724;SDS011;37801;53.224;6.552;2023-02-10T00:17:18;14.30;;;3.85;;
51724;SDS011;37801;53.224;6.552;2023-02-10T00:19:45;14.25;;;4.07;;
51724;SDS011;37801;53.224;6.552;2023-02-10T00:22:11;15.68;;;4.18;;
51724;SDS011;37801;53.224;6.552;2023-02-10T00:24:37;15.15;;;4.53;;
51724;SDS011;37801;53.224;6.552;2023-02-10T00:27:03;11.98;;;3.92;;
51724;SDS011;37801;53.224;6.552;2023-02-10T00:29:29;13.80;;;3.83;;
51724;SDS011;37801;53.224;6.552;2023-02-10T00:31:57;16.15;;;4.30;;
51724;SDS011;37801;53.224;6.552;2023-02-10T00:34:23;11.80;;;4.22;;
51724;SDS011;37801;53.224;6.552;2023-02-10T00:36:50;11.85;;;4.22;;
51724;SDS011;37801;53.224;6.552;2023-02-10T00:39:17;16.75;;;4.43;;
51724;SDS011;37801;53.224;6.552;2023-02-10T00:41:43;17.38;;;4.78;;
51724;SDS011;37801;53.224;6.552;2023-02-10T00:44:09;19.85;;;4.53;;
51724;SDS011;37801;53.224;6.552;2023-02-10T00:46:35;19.17;;;4.63;;
51724;SDS011;37801;53.224;6.552;2023-02-10T00:49:01;15.50;;;4.40;;
51724;SDS011;37801;53.224;6.552;2023-02-10T00:51:28;15.73;;;4.97;;
51724;SDS011;37801;53.224;6.552;2023-02-10T00:53:54;17.58;;;4.13;;
51724;SDS011;37801;53.224;6.552;2023-02-10T00:56:20;14.18;;;4.47;;
51724;SDS011;37801;53.224;6.552;2023-02-10T00:58:47;12.18;;;4.35;;
51724;SDS011;37801;53.224;6.552;2023-02-10T01:01:13;21.45;;;5.53;;
51724;SDS011;37801;53.224;6.552;2023-02-10T01:03:39;16.20;;;4.38;;
51724;SDS011;37801;53.224;6.552;2023-02-10T01:06:05;16.85;;;5.25;;
51724;SDS011;37801;53.224;6.552;2023-02-10T01:08:32;14.98;;;4.72;;
51724;SDS011;37801;53.224;6.552;2023-02-10T01:10:59;13.30;;;4.70;;
51724;SDS011;37801;53.224;6.552;2023-02-10T01:13:25;11.52;;;5.10;;
51724;SDS011;37801;53.224;6.552;2023-02-10T01:15:52;14.30;;;5.00;;
51724;SDS011;37801;53.224;6.552;2023-02-10T01:18:18;17.73;;;5.32;;
51724;SDS011;37801;53.224;6.552;2023-02-10T01:20:44;12.75;;;4.47;;
51724;SDS011;37801;53.224;6.552;2023-02-10T01:23:10;15.80;;;4.85;;
51724;SDS011;37801;53.224;6.552;2023-02-10T01:25:36;15.05;;;4.47;;
51724;SDS011;37801;53.224;6.552;2023-02-10T01:28:03;16.42;;;4.32;;
51724;SDS011;37801;53.224;6.552;2023-02-10T01:30:29;17.52;;;5.25;;
51724;SDS011;37801;53.224;6.552;2023-02-10T01:32:56;15.63;;;4.50;;
51724;SDS011;37801;53.224;6.552;2023-02-10T01:35:22;15.77;;;5.20;;
51724;SDS011;37801;53.224;6.552;2023-02-10T01:37:49;16.35;;;4.63;;
51724;SDS011;37801;53.224;6.552;2023-02-10T01:40:15;15.93;;;4.15;;
51724;SDS011;37801;53.224;6.552;2023-02-10T01:42:41;12.90;;;4.35;;
51724;SDS011;37801;53.224;6.552;2023-02-10T01:45:11;16.58;;;5.03;;
51724;SDS011;37801;53.224;6.552;2023-02-10T01:47:39;11.55;;;4.38;;
51724;SDS011;37801;53.224;6.552;2023-02-10T01:50:06;13.00;;;4.40;;
51724;SDS011;37801;53.224;6.552;2023-02-10T01:52:32;11.10;;;4.10;;
51724;SDS011;37801;53.224;6.552;2023-02-10T01:55:03;11.02;;;3.95;;
51724;SDS011;37801;53.224;6.552;2023-02-10T01:57:30;11.80;;;3.97;;
51724;SDS011;37801;53.224;6.552;2023-02-10T01:59:58;13.68;;;4.53;;
51724;SDS011;37801;53.224;6.552;2023-02-10T02:02:24;16.05;;;4.18;;
51724;SDS011;37801;53.224;6.552;2023-02-10T02:04:52;20.35;;;4.65;;
51724;SDS011;37801;53.224;6.552;2023-02-10T02:07:19;12.45;;;3.90;;
51724;SDS011;37801;53.224;6.552;2023-02-10T02:09:46;15.25;;;4.28;;
51724;SDS011;37801;53.224;6.552;2023-02-10T02:30:45;19.60;;;3.95;;
51724;SDS011;37801;53.224;6.552;2023-02-10T02:33:22;13.70;;;4.15;;
51724;SDS011;37801;53.224;6.552;2023-02-10T02:35:55;15.73;;;4.13;;
51724;SDS011;37801;53.224;6.552;2023-02-10T02:38:23;10.50;;;3.45;;
51724;SDS011;37801;53.224;6.552;2023-02-10T02:40:49;12.30;;;4.05;;
51724;SDS011;37801;53.224;6.552;2023-02-10T02:43:15;13.18;;;3.85;;
51724;SDS011;37801;53.224;6.552;2023-02-10T02:54:05;16.15;;;3.47;;
51724;SDS011;37801;53.224;6.552;2023-02-10T02:56:45;14.25;;;3.55;;
51724;SDS011;37801;53.224;6.552;2023-02-10T03:01:57;13.00;;;3.60;;
51724;SDS011;37801;53.224;6.552;2023-02-10T03:04:28;9.77;;;3.42;;
51724;SDS011;37801;53.224;6.552;2023-02-10T03:06:56;16.58;;;4.15;;
51724;SDS011;37801;53.224;6.552;2023-02-10T03:09:22;17.15;;;3.88;;
51724;SDS011;37801;53.224;6.552;2023-02-10T03:11:48;12.07;;;3.60;;
51724;SDS011;37801;53.224;6.552;2023-02-10T03:14:15;11.23;;;4.38;;
51724;SDS011;37801;53.224;6.552;2023-02-10T03:16:41;12.82;;;3.65;;
51724;SDS011;37801;53.224;6.552;2023-02-10T03:19:07;16.92;;;4.32;;
51724;SDS011;37801;53.224;6.552;2023-02-10T03:21:33;13.38;;;4.07;;
51724;SDS011;37801;53.224;6.552;2023-02-10T03:23:59;13.05;;;3.85;;
51724;SDS011;37801;53.224;6.552;2023-02-10T03:26:26;12.27;;;3.63;;
51724;SDS011;37801;53.224;6.552;2023-02-10T03:28:53;16.85;;;3.85;;
51724;SDS011;37801;53.224;6.552;2023-02-10T03:31:19;13.88;;;3.83;;
51724;SDS011;37801;53.224;6.552;2023-02-10T03:33:45;12.85;;;4.15;;
51724;SDS011;37801;53.224;6.552;2023-02-10T03:36:12;14.90;;;3.65;;
51724;SDS011;37801;53.224;6.552;2023-02-10T03:38:38;16.45;;;4.43;;
51724;SDS011;37801;53.224;6.552;2023-02-10T03:41:04;12.93;;;3.55;;
51724;SDS011;37801;53.224;6.552;2023-02-10T03:43:30;10.32;;;3.53;;
51724;SDS011;37801;53.224;6.552;2023-02-10T03:46:00;12.60;;;3.70;;
51724;SDS011;37801;53.224;6.552;2023-02-10T03:48:26;13.10;;;3.28;;
51724;SDS011;37801;53.224;6.552;2023-02-10T03:50:56;13.60;;;4.05;;
51724;SDS011;37801;53.224;6.552;2023-02-10T03:53:22;11.02;;;3.60;;
51724;SDS011;37801;53.224;6.552;2023-02-10T03:55:48;12.10;;;3.28;;
51724;SDS011;37801;53.224;6.552;2023-02-10T03:58:14;11.00;;;3.40;;
51724;SDS011;37801;53.224;6.552;2023-02-10T04:00:41;9.60;;;3.47;;
51724;SDS011;37801;53.224;6.552;2023-02-10T04:03:07;12.80;;;3.97;;
51724;SDS011;37801;53.224;6.552;2023-02-10T04:05:33;11.60;;;3.20;;
51724;SDS011;37801;53.224;6.552;2023-02-10T04:07:59;9.57;;;3.38;;
51724;SDS011;37801;53.224;6.552;2023-02-10T04:10:25;18.88;;;3.97;;
51724;SDS011;37801;53.224;6.552;2023-02-10T04:12:51;8.90;;;2.92;;
51724;SDS011;37801;53.224;6.552;2023-02-10T04:15:18;15.55;;;3.58;;
51724;SDS011;37801;53.224;6.552;2023-02-10T04:17:44;14.07;;;3.45;;
51724;SDS011;37801;53.224;6.552;2023-02-10T04:20:10;14.15;;;3.80;;
51724;SDS011;37801;53.224;6.552;2023-02-10T04:22:37;14.43;;;3.80;;
51724;SDS011;37801;53.224;6.552;2023-02-10T04:25:03;13.35;;;3.97;;
51724;SDS011;37801;53.224;6.552;2023-02-10T04:27:29;9.80;;;3.50;;
51724;SDS011;37801;53.224;6.552;2023-02-10T04:29:55;13.10;;;3.80;;
51724;SDS011;37801;53.224;6.552;2023-02-10T04:32:22;10.02;;;3.58;;
51724;SDS011;37801;53.224;6.552;2023-02-10T04:34:48;10.00;;;3.67;;
51724;SDS011;37801;53.224;6.552;2023-02-10T04:37:14;12.57;;;3.92;;
51724;SDS011;37801;53.224;6.552;2023-02-10T04:39:40;15.38;;;4.05;;
51724;SDS011;37801;53.224;6.552;2023-02-10T04:42:06;13.65;;;3.63;;
51724;SDS011;37801;53.224;6.552;2023-02-10T04:44:33;15.82;;;4.00;;
51724;SDS011;37801;53.224;6.552;2023-02-10T04:46:59;9.38;;;3.42;;
51724;SDS011;37801;53.224;6.552;2023-02-10T04:49:25;14.23;;;3.58;;
51724;SDS011;37801;53.224;6.552;2023-02-10T04:51:52;11.43;;;3.40;;
51724;SDS011;37801;53.224;6.552;2023-02-10T04:54:18;11.05;;;3.65;;
51724;SDS011;37801;53.224;6.552;2023-02-10T04:56:44;16.73;;;4.10;;
51724;SDS011;37801;53.224;6.552;2023-02-10T04:59:10;16.00;;;3.75;;
51724;SDS011;37801;53.224;6.552;2023-02-10T05:01:36;11.80;;;3.75;;
51724;SDS011;37801;53.224;6.552;2023-02-10T05:04:03;9.00;;;3.13;;
51724;SDS011;37801;53.224;6.552;2023-02-10T05:06:29;10.48;;;3.67;;
51724;SDS011;37801;53.224;6.552;2023-02-10T05:08:55;13.02;;;3.92;;
51724;SDS011;37801;53.224;6.552;2023-02-10T05:11:21;16.15;;;4.40;;
51724;SDS011;37801;53.224;6.552;2023-02-10T05:13:47;16.58;;;4.65;;
51724;SDS011;37801;53.224;6.552;2023-02-10T05:16:14;12.52;;;4.03;;
51724;SDS011;37801;53.224;6.552;2023-02-10T05:18:40;14.90;;;3.55;;
51724;SDS011;37801;53.224;6.552;2023-02-10T05:21:07;11.10;;;3.55;;
51724;SDS011;37801;53.224;6.552;2023-02-10T05:23:33;12.27;;;3.20;;
51724;SDS011;37801;53.224;6.552;2023-02-10T05:25:59;11.68;;;3.45;;
51724;SDS011;37801;53.224;6.552;2023-02-10T05:28:26;12.82;;;4.20;;
51724;SDS011;37801;53.224;6.552;2023-02-10T05:30:52;12.90;;;4.07;;
51724;SDS011;37801;53.224;6.552;2023-02-10T05:33:19;11.07;;;3.92;;
51724;SDS011;37801;53.224;6.552;2023-02-10T05:35:45;10.45;;;3.22;;
51724;SDS011;37801;53.224;6.552;2023-02-10T05:38:11;15.30;;;4.47;;
51724;SDS011;37801;53.224;6.552;2023-02-10T05:40:37;10.30;;;3.25;;
51724;SDS011;37801;53.224;6.552;2023-02-10T05:43:04;11.23;;;3.55;;
51724;SDS011;37801;53.224;6.552;2023-02-10T05:45:30;14.70;;;4.00;;
51724;SDS011;37801;53.224;6.552;2023-02-10T05:47:56;14.60;;;4.20;;
51724;SDS011;37801;53.224;6.552;2023-02-10T05:50:22;13.65;;;4.18;;
51724;SDS011;37801;53.224;6.552;2023-02-10T05:52:48;12.75;;;3.72;;
51724;SDS011;37801;53.224;6.552;2023-02-10T05:55:15;15.10;;;4.13;;
51724;SDS011;37801;53.224;6.552;2023-02-10T05:57:41;11.13;;;3.70;;
51724;SDS011;37801;53.224;6.552;2023-02-10T06:00:07;11.82;;;3.67;;
51724;SDS011;37801;53.224;6.552;2023-02-10T06:02:34;11.20;;;4.07;;
51724;SDS011;37801;53.224;6.552;2023-02-10T06:05:00;11.70;;;4.00;;
51724;SDS011;37801;53.224;6.552;2023-02-10T06:07:26;13.48;;;3.53;;
51724;SDS011;37801;53.224;6.552;2023-02-10T06:09:53;13.40;;;4.30;;
51724;SDS011;37801;53.224;6.552;2023-02-10T06:12:19;12.32;;;4.13;;
51724;SDS011;37801;53.224;6.552;2023-02-10T06:14:45;16.35;;;4.82;;
51724;SDS011;37801;53.224;6.552;2023-02-10T06:17:11;11.38;;;4.60;;
51724;SDS011;37801;53.224;6.552;2023-02-10T06:19:38;13.05;;;4.22;;
51724;SDS011;37801;53.224;6.552;2023-02-10T06:22:04;11.77;;;4.38;;
51724;SDS011;37801;53.224;6.552;2023-02-10T06:24:31;13.77;;;4.80;;
51724;SDS011;37801;53.224;6.552;2023-02-10T06:26:57;10.55;;;4.43;;
51724;SDS011;37801;53.224;6.552;2023-02-10T06:29:23;11.20;;;4.53;;
51724;SDS011;37801;53.224;6.552;2023-02-10T06:31:49;17.55;;;5.22;;
51724;SDS011;37801;53.224;6.552;2023-02-10T06:34:16;15.30;;;4.70;;
51724;SDS011;37801;53.224;6.552;2023-02-10T06:36:42;14.40;;;5.20;;
51724;SDS011;37801;53.224;6.552;2023-02-10T06:39:08;12.73;;;4.32;;
51724;SDS011;37801;53.224;6.552;2023-02-10T06:41:34;10.20;;;4.53;;
51724;SDS011;37801;53.224;6.552;2023-02-10T06:44:00;12.20;;;4.60;;
51724;SDS011;37801;53.224;6.552;2023-02-10T06:46:26;13.77;;;4.78;;
51724;SDS011;37801;53.224;6.552;2023-02-10T06:48:52;17.27;;;4.93;;
51724;SDS011;37801;53.224;6.552;2023-02-10T06:51:19;20.05;;;5.40;;
51724;SDS011;37801;53.224;6.552;2023-02-10T06:53:45;11.73;;;4.95;;
51724;SDS011;37801;53.224;6.552;2023-02-10T06:56:12;16.38;;;5.50;;
51724;SDS011;37801;53.224;6.552;2023-02-10T06:58:38;17.88;;;5.50;;
51724;SDS011;37801;53.224;6.552;2023-02-10T07:01:08;16.60;;;5.43;;
51724;SDS011;37801;53.224;6.552;2023-02-10T07:03:34;14.05;;;5.72;;
51724;SDS011;37801;53.224;6.552;2023-02-10T07:06:01;15.75;;;5.28;;
51724;SDS011;37801;53.224;6.552;2023-02-10T07:08:27;12.82;;;5.63;;
51724;SDS011;37801;53.224;6.552;2023-02-10T07:10:53;17.55;;;6.72;;
51724;SDS011;37801;53.224;6.552;2023-02-10T07:13:19;16.55;;;6.50;;
51724;SDS011;37801;53.224;6.552;2023-02-10T07:15:45;13.77;;;5.60;;
51724;SDS011;37801;53.224;6.552;2023-02-10T07:18:12;15.65;;;5.65;;
51724;SDS011;37801;53.224;6.552;2023-02-10T07:20:38;27.20;;;6.50;;
51724;SDS011;37801;53.224;6.552;2023-02-10T07:23:05;11.85;;;5.68;;
51724;SDS011;37801;53.224;6.552;2023-02-10T07:25:31;12.48;;;5.63;;
51724;SDS011;37801;53.224;6.552;2023-02-10T07:27:57;15.48;;;5.68;;
51724;SDS011;37801;53.224;6.552;2023-02-10T07:30:23;15.52;;;5.93;;
51724;SDS011;37801;53.224;6.552;2023-02-10T07:32:49;21.30;;;5.75;;
51724;SDS011;37801;53.224;6.552;2023-02-10T07:35:15;15.73;;;6.07;;
51724;SDS011;37801;53.224;6.552;2023-02-10T07:37:42;16.80;;;5.65;;
51724;SDS011;37801;53.224;6.552;2023-02-10T07:40:08;18.35;;;5.75;;
51724;SDS011;37801;53.224;6.552;2023-02-10T07:42:34;15.38;;;5.45;;
51724;SDS011;37801;53.224;6.552;2023-02-10T07:45:01;17.20;;;6.53;;
51724;SDS011;37801;53.224;6.552;2023-02-10T07:47:27;18.50;;;6.15;;
51724;SDS011;37801;53.224;6.552;2023-02-10T07:49:53;16.80;;;5.80;;
51724;SDS011;37801;53.224;6.552;2023-02-10T07:52:20;18.13;;;6.18;;
51724;SDS011;37801;53.224;6.552;2023-02-10T07:54:47;17.30;;;6.28;;
51724;SDS011;37801;53.224;6.552;2023-02-10T07:57:13;14.32;;;5.18;;
51724;SDS011;37801;53.224;6.552;2023-02-10T07:59:39;14.25;;;5.93;;
51724;SDS011;37801;53.224;6.552;2023-02-10T08:02:07;19.35;;;6.68;;
51724;SDS011;37801;53.224;6.552;2023-02-10T08:04:33;16.40;;;5.85;;
51724;SDS011;37801;53.224;6.552;2023-02-10T08:06:59;10.95;;;5.65;;
51724;SDS011;37801;53.224;6.552;2023-02-10T08:09:25;15.70;;;6.57;;
51724;SDS011;37801;53.224;6.552;2023-02-10T08:11:51;14.35;;;6.13;;
51724;SDS011;37801;53.224;6.552;2023-02-10T08:14:17;16.58;;;6.07;;
51724;SDS011;37801;53.224;6.552;2023-02-10T08:16:43;14.60;;;6.25;;
51724;SDS011;37801;53.224;6.552;2023-02-10T08:19:10;20.13;;;6.30;;
51724;SDS011;37801;53.224;6.552;2023-02-10T08:21:36;15.07;;;6.18;;
51724;SDS011;37801;53.224;6.552;2023-02-10T08:24:02;14.95;;;6.45;;
51724;SDS011;37801;53.224;6.552;2023-02-10T08:26:28;18.73;;;5.95;;
51724;SDS011;37801;53.224;6.552;2023-02-10T08:28:54;18.75;;;5.95;;
51724;SDS011;37801;53.224;6.552;2023-02-10T08:31:23;13.88;;;6.45;;
51724;SDS011;37801;53.224;6.552;2023-02-10T08:33:49;15.55;;;6.10;;
51724;SDS011;37801;53.224;6.552;2023-02-10T08:36:16;13.30;;;6.43;;
51724;SDS011;37801;53.224;6.552;2023-02-10T08:38:43;18.75;;;6.85;;
51724;SDS011;37801;53.224;6.552;2023-02-10T08:41:10;17.73;;;6.78;;
51724;SDS011;37801;53.224;6.552;2023-02-10T08:43:36;14.48;;;6.47;;
51724;SDS011;37801;53.224;6.552;2023-02-10T08:46:05;16.05;;;6.63;;
51724;SDS011;37801;53.224;6.552;2023-02-10T08:48:32;16.38;;;6.65;;
51724;SDS011;37801;53.224;6.552;2023-02-10T08:50:58;16.70;;;6.45;;
51724;SDS011;37801;53.224;6.552;2023-02-10T08:53:25;14.10;;;5.75;;
51724;SDS011;37801;53.224;6.552;2023-02-10T08:55:58;21.88;;;7.03;;
51724;SDS011;37801;53.224;6.552;2023-02-10T08:58:24;17.70;;;6.75;;
51724;SDS011;37801;53.224;6.552;2023-02-10T09:00:51;16.45;;;6.70;;
51724;SDS011;37801;53.224;6.552;2023-02-10T09:03:17;12.52;;;6.43;;
51724;SDS011;37801;53.224;6.552;2023-02-10T09:05:43;15.80;;;6.55;;
51724;SDS011;37801;53.224;6.552;2023-02-10T09:08:11;15.55;;;7.22;;
51724;SDS011;37801;53.224;6.552;2023-02-10T09:10:38;13.55;;;6.38;;
51724;SDS011;37801;53.224;6.552;2023-02-10T09:13:05;14.75;;;6.57;;
51724;SDS011;37801;53.224;6.552;2023-02-10T09:15:34;15.82;;;6.82;;
51724;SDS011;37801;53.224;6.552;2023-02-10T09:18:01;12.60;;;6.57;;
51724;SDS011;37801;53.224;6.552;2023-02-10T09:20:28;15.45;;;6.45;;
51724;SDS011;37801;53.224;6.552;2023-02-10T09:22:54;14.27;;;6.40;;
51724;SDS011;37801;53.224;6.552;2023-02-10T09:25:20;14.18;;;6.75;;
51724;SDS011;37801;53.224;6.552;2023-02-10T09:27:47;17.55;;;6.80;;
51724;SDS011;37801;53.224;6.552;2023-02-10T09:30:13;14.60;;;7.20;;
51724;SDS011;37801;53.224;6.552;2023-02-10T09:32:39;15.85;;;6.70;;
51724;SDS011;37801;53.224;6.552;2023-02-10T09:35:05;23.77;;;8.40;;
51724;SDS011;37801;53.224;6.552;2023-02-10T09:37:31;17.45;;;6.93;;
51724;SDS011;37801;53.224;6.552;2023-02-10T09:39:58;15.35;;;7.30;;
51724;SDS011;37801;53.224;6.552;2023-02-10T09:45:10;14.45;;;7.20;;
51724;SDS011;37801;53.224;6.552;2023-02-10T09:47:48;16.02;;;7.43;;
51724;SDS011;37801;53.224;6.552;2023-02-10T09:57:48;15.60;;;6.90;;
51724;SDS011;37801;53.224;6.552;2023-02-10T10:02:55;15.40;;;6.55;;
51724;SDS011;37801;53.224;6.552;2023-02-10T10:05:33;16.08;;;6.90;;
51724;SDS011;37801;53.224;6.552;2023-02-10T10:08:02;16.80;;;7.00;;
51724;SDS011;37801;53.224;6.552;2023-02-10T10:10:37;17.08;;;7.25;;
51724;SDS011;37801;53.224;6.552;2023-02-10T10:13:15;20.35;;;7.45;;
51724;SDS011;37801;53.224;6.552;2023-02-10T10:15:45;17.10;;;7.00;;
51724;SDS011;37801;53.224;6.552;2023-02-10T10:18:20;19.80;;;7.22;;
51724;SDS011;37801;53.224;6.552;2023-02-10T10:20:57;20.50;;;8.00;;
51724;SDS011;37801;53.224;6.552;2023-02-10T10:26:57;15.05;;;6.95;;
51724;SDS011;37801;53.224;6.552;2023-02-10T10:31:42;15.98;;;7.55;;
51724;SDS011;37801;53.224;6.552;2023-02-10T10:34:11;16.00;;;7.15;;
51724;SDS011;37801;53.224;6.552;2023-02-10T10:36:48;19.23;;;7.25;;
51724;SDS011;37801;53.224;6.552;2023-02-10T10:41:41;15.32;;;7.28;;
51724;SDS011;37801;53.224;6.552;2023-02-10T10:44:09;20.52;;;8.05;;
51724;SDS011;37801;53.224;6.552;2023-02-10T10:49:11;17.75;;;7.07;;
51724;SDS011;37801;53.224;6.552;2023-02-10T10:51:37;20.73;;;9.02;;
51724;SDS011;37801;53.224;6.552;2023-02-10T10:54:05;16.55;;;7.40;;
51724;SDS011;37801;53.224;6.552;2023-02-10T10:56:50;18.35;;;8.05;;
51724;SDS011;37801;53.224;6.552;2023-02-10T10:59:18;17.90;;;8.50;;
51724;SDS011;37801;53.224;6.552;2023-02-10T11:01:46;18.80;;;8.00;;
51724;SDS011;37801;53.224;6.552;2023-02-10T11:04:17;22.40;;;9.20;;
51724;SDS011;37801;53.224;6.552;2023-02-10T11:06:45;21.10;;;8.45;;
51724;SDS011;37801;53.224;6.552;2023-02-10T11:09:21;19.95;;;8.07;;
51724;SDS011;37801;53.224;6.552;2023-02-10T11:11:47;22.02;;;8.52;;
51724;SDS011;37801;53.224;6.552;2023-02-10T11:14:24;19.70;;;8.00;;
51724;SDS011;37801;53.224;6.552;2023-02-10T11:16:56;19.08;;;8.48;;
51724;SDS011;37801;53.224;6.552;2023-02-10T11:19:30;19.27;;;7.63;;
51724;SDS011;37801;53.224;6.552;2023-02-10T11:21:56;19.27;;;8.07;;
51724;SDS011;37801;53.224;6.552;2023-02-10T11:24:47;23.10;;;8.45;;
51724;SDS011;37801;53.224;6.552;2023-02-10T11:27:13;21.80;;;7.68;;
51724;SDS011;37801;53.224;6.552;2023-02-10T11:29:49;19.38;;;7.80;;
51724;SDS011;37801;53.224;6.552;2023-02-10T11:32:20;21.52;;;8.18;;
51724;SDS011;37801;53.224;6.552;2023-02-10T11:34:47;20.17;;;7.65;;
51724;SDS011;37801;53.224;6.552;2023-02-10T11:37:27;21.15;;;7.85;;
51724;SDS011;37801;53.224;6.552;2023-02-10T11:39:55;18.88;;;8.05;;
51724;SDS011;37801;53.224;6.552;2023-02-10T11:42:28;22.85;;;7.32;;
51724;SDS011;37801;53.224;6.552;2023-02-10T11:47:22;21.40;;;7.63;;
51724;SDS011;37801;53.224;6.552;2023-02-10T11:49:49;17.67;;;6.65;;
51724;SDS011;37801;53.224;6.552;2023-02-10T11:52:16;19.55;;;7.05;;
51724;SDS011;37801;53.224;6.552;2023-02-10T11:54:44;21.95;;;6.97;;
51724;SDS011;37801;53.224;6.552;2023-02-10T11:57:30;21.08;;;6.93;;
51724;SDS011;37801;53.224;6.552;2023-02-10T12:18:09;14.80;;;5.78;;
51724;SDS011;37801;53.224;6.552;2023-02-10T12:23:11;16.67;;;5.55;;
51724;SDS011;37801;53.224;6.552;2023-02-10T12:31:13;20.52;;;5.00;;
51724;SDS011;37801;53.224;6.552;2023-02-10T12:33:46;14.68;;;4.10;;
51724;SDS011;37801;53.224;6.552;2023-02-10T12:43:51;15.88;;;4.15;;
51724;SDS011;37801;53.224;6.552;2023-02-10T12:51:43;19.73;;;3.90;;
51724;SDS011;37801;53.224;6.552;2023-02-10T12:56:42;11.88;;;3.67;;
51724;SDS011;37801;53.224;6.552;2023-02-10T12:59:26;14.98;;;3.42;;
51724;SDS011;37801;53.224;6.552;2023-02-10T13:02:05;17.20;;;3.60;;
51724;SDS011;37801;53.224;6.552;2023-02-10T13:04:33;15.43;;;3.65;;
51724;SDS011;37801;53.224;6.552;2023-02-10T13:07:04;14.52;;;3.65;;
51724;SDS011;37801;53.224;6.552;2023-02-10T13:14:35;11.73;;;3.58;;
51724;SDS011;37801;53.224;6.552;2023-02-10T13:17:04;11.27;;;3.83;;
51724;SDS011;37801;53.224;6.552;2023-02-10T13:35:23;12.15;;;3.80;;
51724;SDS011;37801;53.224;6.552;2023-02-10T13:37:51;10.60;;;3.50;;
51724;SDS011;37801;53.224;6.552;2023-02-10T13:40:26;15.88;;;3.88;;
51724;SDS011;37801;53.224;6.552;2023-02-10T13:42:56;12.30;;;3.45;;
51724;SDS011;37801;53.224;6.552;2023-02-10T13:45:27;9.32;;;3.63;;
51724;SDS011;37801;53.224;6.552;2023-02-10T13:53:02;11.50;;;3.13;;
51724;SDS011;37801;53.224;6.552;2023-02-10T14:00:44;18.50;;;4.38;;
51724;SDS011;37801;53.224;6.552;2023-02-10T14:05:38;14.30;;;3.95;;
51724;SDS011;37801;53.224;6.552;2023-02-10T14:08:12;10.90;;;2.83;;
51724;SDS011;37801;53.224;6.552;2023-02-10T14:10:38;10.52;;;3.00;;
51724;SDS011;37801;53.224;6.552;2023-02-10T14:13:18;12.05;;;3.17;;
51724;SDS011;37801;53.224;6.552;2023-02-10T14:15:56;9.45;;;3.08;;
51724;SDS011;37801;53.224;6.552;2023-02-10T14:18:27;13.23;;;3.53;;
51724;SDS011;37801;53.224;6.552;2023-02-10T14:20:54;17.40;;;3.67;;
51724;SDS011;37801;53.224;6.552;2023-02-10T14:23:21;14.13;;;3.78;;
51724;SDS011;37801;53.224;6.552;2023-02-10T14:25:48;14.88;;;3.05;;
51724;SDS011;37801;53.224;6.552;2023-02-10T14:28:19;12.93;;;3.40;;
51724;SDS011;37801;53.224;6.552;2023-02-10T14:30:46;10.50;;;3.25;;
51724;SDS011;37801;53.224;6.552;2023-02-10T14:33:20;17.80;;;4.20;;
51724;SDS011;37801;53.224;6.552;2023-02-10T14:35:50;15.63;;;3.72;;
51724;SDS011;37801;53.224;6.552;2023-02-10T14:38:51;12.25;;;3.60;;
51724;SDS011;37801;53.224;6.552;2023-02-10T14:43:37;13.27;;;3.85;;
51724;SDS011;37801;53.224;6.552;2023-02-10T14:46:05;10.85;;;3.60;;
51724;SDS011;37801;53.224;6.552;2023-02-10T14:48:31;13.43;;;3.83;;
51724;SDS011;37801;53.224;6.552;2023-02-10T14:53:23;18.20;;;4.10;;
51724;SDS011;37801;53.224;6.552;2023-02-10T14:55:54;12.23;;;3.60;;
51724;SDS011;37801;53.224;6.552;2023-02-10T14:58:20;14.65;;;3.92;;
51724;SDS011;37801;53.224;6.552;2023-02-10T15:00:53;14.43;;;4.25;;
51724;SDS011;37801;53.224;6.552;2023-02-10T15:03:19;11.25;;;3.58;;
51724;SDS011;37801;53.224;6.552;2023-02-10T15:05:47;13.63;;;3.97;;
51724;SDS011;37801;53.224;6.552;2023-02-10T15:08:16;12.52;;;4.07;;
51724;SDS011;37801;53.224;6.552;2023-02-10T15:10:45;15.60;;;4.60;;
51724;SDS011;37801;53.224;6.552;2023-02-10T15:13:14;16.60;;;4.30;;
51724;SDS011;37801;53.224;6.552;2023-02-10T15:15:45;15.80;;;4.70;;
51724;SDS011;37801;53.224;6.552;2023-02-10T15:18:20;15.05;;;4.43;;
51724;SDS011;37801;53.224;6.552;2023-02-10T15:20:57;16.58;;;4.10;;
51724;SDS011;37801;53.224;6.552;2023-02-10T15:23:23;16.08;;;4.72;;
51724;SDS011;37801;53.224;6.552;2023-02-10T15:28:29;10.00;;;4.07;;
51724;SDS011;37801;53.224;6.552;2023-02-10T15:33:35;19.45;;;4.78;;
51724;SDS011;37801;53.224;6.552;2023-02-10T15:38:27;12.80;;;4.28;;
51724;SDS011;37801;53.224;6.552;2023-02-10T15:40:54;15.75;;;4.45;;
51724;SDS011;37801;53.224;6.552;2023-02-10T15:43:22;13.80;;;4.82;;
51724;SDS011;37801;53.224;6.552;2023-02-10T15:45:49;13.38;;;4.40;;
51724;SDS011;37801;53.224;6.552;2023-02-10T15:48:19;16.35;;;4.95;;
51724;SDS011;37801;53.224;6.552;2023-02-10T15:50:45;13.77;;;4.97;;
51724;SDS011;37801;53.224;6.552;2023-02-10T15:53:13;14.20;;;4.97;;
51724;SDS011;37801;53.224;6.552;2023-02-10T15:55:43;13.63;;;4.90;;
51724;SDS011;37801;53.224;6.552;2023-02-10T15:58:10;13.85;;;4.93;;
51724;SDS011;37801;53.224;6.552;2023-02-10T16:00:37;13.07;;;4.78;;
51724;SDS011;37801;53.224;6.552;2023-02-10T16:03:04;13.85;;;4.68;;
51724;SDS011;37801;53.224;6.552;2023-02-10T16:05:35;11.45;;;5.40;;
51724;SDS011;37801;53.224;6.552;2023-02-10T16:08:06;15.23;;;5.57;;
51724;SDS011;37801;53.224;6.552;2023-02-10T16:10:33;13.45;;;4.75;;
51724;SDS011;37801;53.224;6.552;2023-02-10T16:12:59;15.25;;;5.50;;
51724;SDS011;37801;53.224;6.552;2023-02-10T16:15:25;13.30;;;5.60;;
51724;SDS011;37801;53.224;6.552;2023-02-10T16:17:53;11.55;;;5.55;;
51724;SDS011;37801;53.224;6.552;2023-02-10T16:20:24;13.68;;;5.15;;
51724;SDS011;37801;53.224;6.552;2023-02-10T16:22:51;15.20;;;5.10;;
51724;SDS011;37801;53.224;6.552;2023-02-10T16:25:18;16.23;;;5.68;;
51724;SDS011;37801;53.224;6.552;2023-02-10T16:27:45;10.90;;;4.50;;
51724;SDS011;37801;53.224;6.552;2023-02-10T16:30:14;13.25;;;5.25;;
51724;SDS011;37801;53.224;6.552;2023-02-10T16:32:40;11.77;;;5.03;;
51724;SDS011;37801;53.224;6.552;2023-02-10T16:35:06;16.95;;;6.65;;
51724;SDS011;37801;53.224;6.552;2023-02-10T16:37:32;19.05;;;7.53;;
51724;SDS011;37801;53.224;6.552;2023-02-10T16:39:59;15.95;;;6.25;;
51724;SDS011;37801;53.224;6.552;2023-02-10T16:42:25;17.92;;;6.53;;
51724;SDS011;37801;53.224;6.552;2023-02-10T16:44:51;11.25;;;5.53;;
51724;SDS011;37801;53.224;6.552;2023-02-10T16:47:18;14.15;;;5.80;;
51724;SDS011;37801;53.224;6.552;2023-02-10T16:49:45;14.60;;;6.00;;
51724;SDS011;37801;53.224;6.552;2023-02-10T16:52:12;13.52;;;5.75;;
51724;SDS011;37801;53.224;6.552;2023-02-10T16:54:39;14.20;;;6.35;;
51724;SDS011;37801;53.224;6.552;2023-02-10T16:57:05;14.60;;;6.15;;
51724;SDS011;37801;53.224;6.552;2023-02-10T16:59:31;14.32;;;6.32;;
51724;SDS011;37801;53.224;6.552;2023-02-10T17:01:58;22.88;;;6.97;;